PWSweather.com
Personal Weather Stations
Station Observations
03410
LignerollesTF

LignerollesTF

Lat: 46.292342, Lon: 2.589435

Elevation: 1014

Station Type: Vantage Vue

http://meteo-lignerolles.fr

Latest ConditionsUpdated 7:00:00 PM GMT+01:01 Tuesday, Jun 18, 2019
Currently Today's Max Today's Min Today's Average
Temperature 86.0°F30.0°C 89.4°F31.9°C 60.9°F16.1°C 82.2°F27.9°C
Dew Point 58.1°F14.5°C 64.9°F18.3°C 53.4°F11.9°C 58.6°F14.8°C
Winds 1.0 mph NNE1.6 kmh NNE 3.0 mph -4.8 kmh - - 1.4 mph 2.3 kmh
Wind Gusts 4.0 mph6.4 kmh 10.0 mph16.1 kmh - -
Humidity 39% 86% 33% 47%
Pressure 29.82 in1009.8 mb 29.96 in1014.6 mb 29.82 in1009.8 mb -
Hour Temp Dew Point Humidity Winds Wind Gusts Pressure Precip Precip Rate Daily Precip Total
07:00 PM 86.0°F30.0°C 58.1°F14.5°C 39% 1.0 mph NNE1.6 kmh NNE 4.0 mph6.4 kmh 29.82 in1009.8 mb 0.00 in0.0 mm 0.00 in0.0 mm 0.00 in0.0 mm
06:50 PM 85.8°F29.9°C 56.5°F13.6°C 37% 1.0 mph NE1.6 kmh NE 4.0 mph6.4 kmh 29.83 in1010.2 mb 0.00 in0.0 mm 0.00 in0.0 mm 0.00 in0.0 mm
06:40 PM 86.2°F30.1°C 55.3°F12.9°C 35% 1.0 mph NNE1.6 kmh NNE 4.0 mph6.4 kmh 29.83 in1010.2 mb 0.00 in0.0 mm 0.00 in0.0 mm 0.00 in0.0 mm
06:30 PM 88.0°F31.1°C 56.1°F13.4°C 34% 1.0 mph NNE1.6 kmh NNE 3.0 mph4.8 kmh 29.83 in1010.2 mb 0.00 in0.0 mm 0.00 in0.0 mm 0.00 in0.0 mm
06:20 PM 88.1°F31.2°C 55.3°F12.9°C 33% 1.0 mph NW1.6 kmh NW 4.0 mph6.4 kmh 29.83 in1010.2 mb 0.00 in0.0 mm 0.00 in0.0 mm 0.00 in0.0 mm
06:10 PM 88.6°F31.4°C 55.8°F13.2°C 33% 1.0 mph NNE1.6 kmh NNE 3.0 mph4.8 kmh 29.83 in1010.2 mb 0.00 in0.0 mm 0.00 in0.0 mm 0.00 in0.0 mm
06:00 PM 88.7°F31.5°C 57.5°F14.2°C 35% 1.0 mph SW1.6 kmh SW 6.0 mph9.7 kmh 29.83 in1010.2 mb 0.00 in0.0 mm 0.00 in0.0 mm 0.00 in0.0 mm
05:50 PM 89.3°F31.8°C 58.0°F14.4°C 35% 1.0 mph NNE1.6 kmh NNE 7.0 mph11.3 kmh 29.84 in1010.5 mb 0.00 in0.0 mm 0.00 in0.0 mm 0.00 in0.0 mm
05:40 PM 89.3°F31.8°C 58.8°F14.9°C 36% 1.0 mph NE1.6 kmh NE 5.0 mph8.0 kmh 29.83 in1010.2 mb 0.00 in0.0 mm 0.00 in0.0 mm 0.00 in0.0 mm
05:30 PM 89.4°F31.9°C 57.3°F14.1°C 34% 1.0 mph NNE1.6 kmh NNE 6.0 mph9.7 kmh 29.84 in1010.5 mb 0.00 in0.0 mm 0.00 in0.0 mm 0.00 in0.0 mm
05:20 PM 89.0°F31.7°C 58.5°F14.7°C 36% 2.0 mph 3.2 kmh 5.0 mph8.0 kmh 29.84 in1010.5 mb 0.00 in0.0 mm 0.00 in0.0 mm 0.00 in0.0 mm
05:10 PM 88.2°F31.2°C 57.1°F13.9°C 35% 2.0 mph NE3.2 kmh NE 7.0 mph11.3 kmh 29.84 in1010.5 mb 0.00 in0.0 mm 0.00 in0.0 mm 0.00 in0.0 mm
05:00 PM 88.1°F31.2°C 57.7°F14.3°C 36% 2.0 mph NE3.2 kmh NE 7.0 mph11.3 kmh 29.84 in1010.5 mb 0.00 in0.0 mm 0.00 in0.0 mm 0.00 in0.0 mm
04:50 PM 87.8°F31.0°C 57.5°F14.2°C 36% 2.0 mph NE3.2 kmh NE 6.0 mph9.7 kmh 29.85 in1010.8 mb 0.00 in0.0 mm 0.00 in0.0 mm 0.00 in0.0 mm
04:40 PM 87.9°F31.1°C 58.3°F14.6°C 37% 1.0 mph WNW1.6 kmh WNW 5.0 mph8.0 kmh 29.85 in1010.8 mb 0.00 in0.0 mm 0.00 in0.0 mm 0.00 in0.0 mm
04:30 PM 88.6°F31.4°C 59.7°F15.4°C 38% 1.0 mph NNW1.6 kmh NNW 5.0 mph8.0 kmh 29.85 in1010.8 mb 0.00 in0.0 mm 0.00 in0.0 mm 0.00 in0.0 mm
04:20 PM 88.1°F31.2°C 60.0°F15.6°C 39% 2.0 mph NNW3.2 kmh NNW 5.0 mph8.0 kmh 29.85 in1010.8 mb 0.00 in0.0 mm 0.00 in0.0 mm 0.00 in0.0 mm
04:10 PM 88.1°F31.2°C 60.7°F15.9°C 40% 2.0 mph NW3.2 kmh NW 5.0 mph8.0 kmh 29.86 in1011.2 mb 0.00 in0.0 mm 0.00 in0.0 mm 0.00 in0.0 mm
04:00 PM 87.6°F30.9°C 59.5°F15.3°C 39% 2.0 mph NNW3.2 kmh NNW 5.0 mph8.0 kmh 29.86 in1011.2 mb 0.00 in0.0 mm 0.00 in0.0 mm 0.00 in0.0 mm
03:50 PM 87.4°F30.8°C 59.4°F15.2°C 39% 2.0 mph NE3.2 kmh NE 7.0 mph11.3 kmh 29.86 in1011.2 mb 0.00 in0.0 mm 0.00 in0.0 mm 0.00 in0.0 mm
03:40 PM 86.8°F30.4°C 58.8°F14.9°C 39% 2.0 mph NNE3.2 kmh NNE 7.0 mph11.3 kmh 29.86 in1011.2 mb 0.00 in0.0 mm 0.00 in0.0 mm 0.00 in0.0 mm
03:30 PM 86.5°F30.3°C 59.3°F15.2°C 40% 3.0 mph NE4.8 kmh NE 8.0 mph12.9 kmh 29.86 in1011.2 mb 0.00 in0.0 mm 0.00 in0.0 mm 0.00 in0.0 mm
03:20 PM 86.5°F30.3°C 57.1°F13.9°C 37% 3.0 mph NE4.8 kmh NE 10.0 mph16.1 kmh 29.87 in1011.5 mb 0.00 in0.0 mm 0.00 in0.0 mm 0.00 in0.0 mm
03:10 PM 86.3°F30.2°C 57.7°F14.3°C 38% 3.0 mph NE4.8 kmh NE 6.0 mph9.7 kmh 29.87 in1011.5 mb 0.00 in0.0 mm 0.00 in0.0 mm 0.00 in0.0 mm
03:00 PM 85.3°F29.6°C 58.2°F14.6°C 40% 2.0 mph NE3.2 kmh NE 6.0 mph9.7 kmh 29.87 in1011.5 mb 0.00 in0.0 mm 0.00 in0.0 mm 0.00 in0.0 mm
02:50 PM 84.9°F29.4°C 57.9°F14.4°C 40% 2.0 mph NE3.2 kmh NE 4.0 mph6.4 kmh 29.88 in1011.9 mb 0.00 in0.0 mm 0.00 in0.0 mm 0.00 in0.0 mm
02:40 PM 84.2°F29.0°C 58.6°F14.8°C 42% Calm Calm 2.0 mph3.2 kmh 29.88 in1011.9 mb 0.00 in0.0 mm 0.00 in0.0 mm 0.00 in0.0 mm
02:30 PM 84.7°F29.3°C 57.7°F14.3°C 40% Calm Calm 2.0 mph3.2 kmh 29.89 in1012.2 mb 0.00 in0.0 mm 0.00 in0.0 mm 0.00 in0.0 mm
02:20 PM 85.0°F29.4°C 57.9°F14.4°C 40% 1.0 mph WNW1.6 kmh WNW 3.0 mph4.8 kmh 29.89 in1012.2 mb 0.00 in0.0 mm 0.00 in0.0 mm 0.00 in0.0 mm
02:10 PM 86.0°F30.0°C 58.1°F14.5°C 39% 1.0 mph 1.6 kmh 2.0 mph3.2 kmh 29.89 in1012.2 mb 0.00 in0.0 mm 0.00 in0.0 mm 0.00 in0.0 mm
02:00 PM 86.0°F30.0°C 55.1°F12.8°C 35% 1.0 mph WNW1.6 kmh WNW 4.0 mph6.4 kmh 29.89 in1012.2 mb 0.00 in0.0 mm 0.00 in0.0 mm 0.00 in0.0 mm
01:50 PM 85.1°F29.5°C 57.3°F14.1°C 39% 1.0 mph NE1.6 kmh NE 5.0 mph8.0 kmh 29.89 in1012.2 mb 0.00 in0.0 mm 0.00 in0.0 mm 0.00 in0.0 mm
01:40 PM 84.9°F29.4°C 54.9°F12.7°C 36% 2.0 mph NE3.2 kmh NE 7.0 mph11.3 kmh 29.90 in1012.5 mb 0.00 in0.0 mm 0.00 in0.0 mm 0.00 in0.0 mm
01:30 PM 84.8°F29.3°C 55.6°F13.1°C 37% 1.0 mph NE1.6 kmh NE 5.0 mph8.0 kmh 29.90 in1012.5 mb 0.00 in0.0 mm 0.00 in0.0 mm 0.00 in0.0 mm
01:20 PM 85.1°F29.5°C 57.3°F14.1°C 39% 1.0 mph NE1.6 kmh NE 5.0 mph8.0 kmh 29.90 in1012.5 mb 0.00 in0.0 mm 0.00 in0.0 mm 0.00 in0.0 mm
01:10 PM 84.6°F29.2°C 58.3°F14.6°C 41% 1.0 mph ENE1.6 kmh ENE 3.0 mph4.8 kmh 29.90 in1012.5 mb 0.00 in0.0 mm 0.00 in0.0 mm 0.00 in0.0 mm
01:00 PM 83.7°F28.7°C 55.4°F13.0°C 38% 1.0 mph ENE1.6 kmh ENE 3.0 mph4.8 kmh 29.90 in1012.5 mb 0.00 in0.0 mm 0.00 in0.0 mm 0.00 in0.0 mm
12:50 PM 83.8°F28.8°C 56.9°F13.8°C 40% 1.0 mph ENE1.6 kmh ENE 3.0 mph4.8 kmh 29.90 in1012.5 mb 0.00 in0.0 mm 0.00 in0.0 mm 0.00 in0.0 mm
12:40 PM 83.5°F28.6°C 57.3°F14.1°C 41% Calm Calm 3.0 mph4.8 kmh 29.91 in1012.9 mb 0.00 in0.0 mm 0.00 in0.0 mm 0.00 in0.0 mm
12:30 PM 83.2°F28.4°C 53.4°F11.9°C 36% 1.0 mph ENE1.6 kmh ENE 3.0 mph4.8 kmh 29.91 in1012.9 mb 0.00 in0.0 mm 0.00 in0.0 mm 0.00 in0.0 mm
12:20 PM 84.2°F29.0°C 54.3°F12.4°C 36% 2.0 mph NE3.2 kmh NE 6.0 mph9.7 kmh 29.92 in1013.2 mb 0.00 in0.0 mm 0.00 in0.0 mm 0.00 in0.0 mm
12:10 PM 85.0°F29.4°C 61.2°F16.2°C 45% Calm Calm 2.0 mph3.2 kmh 29.93 in1013.5 mb 0.00 in0.0 mm 0.00 in0.0 mm 0.00 in0.0 mm
12:00 PM 84.4°F29.1°C 59.4°F15.2°C 43% 1.0 mph E1.6 kmh E 3.0 mph4.8 kmh 29.93 in1013.5 mb 0.00 in0.0 mm 0.00 in0.0 mm 0.00 in0.0 mm
11:50 AM 84.0°F28.9°C 58.4°F14.7°C 42% 1.0 mph W1.6 kmh W 2.0 mph3.2 kmh 29.93 in1013.5 mb 0.00 in0.0 mm 0.00 in0.0 mm 0.00 in0.0 mm
11:40 AM 84.4°F29.1°C 54.5°F12.5°C 36% 1.0 mph SW1.6 kmh SW 6.0 mph9.7 kmh 29.93 in1013.5 mb 0.00 in0.0 mm 0.00 in0.0 mm 0.00 in0.0 mm
11:30 AM 84.6°F29.2°C 54.7°F12.6°C 36% 1.0 mph W1.6 kmh W 3.0 mph4.8 kmh 29.93 in1013.5 mb 0.00 in0.0 mm 0.00 in0.0 mm 0.00 in0.0 mm
11:20 AM 84.1°F28.9°C 54.2°F12.3°C 36% 2.0 mph WSW3.2 kmh WSW 4.0 mph6.4 kmh 29.93 in1013.5 mb 0.00 in0.0 mm 0.00 in0.0 mm 0.00 in0.0 mm
11:10 AM 84.3°F29.1°C 62.4°F16.9°C 48% 1.0 mph ENE1.6 kmh ENE 3.0 mph4.8 kmh 29.93 in1013.5 mb 0.00 in0.0 mm 0.00 in0.0 mm 0.00 in0.0 mm
11:00 AM 82.4°F28.0°C 60.1°F15.6°C 47% 1.0 mph W1.6 kmh W 4.0 mph6.4 kmh 29.93 in1013.5 mb 0.00 in0.0 mm 0.00 in0.0 mm 0.00 in0.0 mm
10:50 AM 81.2°F27.3°C 61.3°F16.3°C 51% 2.0 mph SW3.2 kmh SW 4.0 mph6.4 kmh 29.94 in1013.9 mb 0.00 in0.0 mm 0.00 in0.0 mm 0.00 in0.0 mm
10:40 AM 80.6°F27.0°C 60.8°F16.0°C 51% 2.0 mph WSW3.2 kmh WSW 5.0 mph8.0 kmh 29.94 in1013.9 mb 0.00 in0.0 mm 0.00 in0.0 mm 0.00 in0.0 mm
10:30 AM 80.5°F26.9°C 62.8°F17.1°C 55% 3.0 mph SW4.8 kmh SW 6.0 mph9.7 kmh 29.94 in1013.9 mb 0.00 in0.0 mm 0.00 in0.0 mm 0.00 in0.0 mm
10:20 AM 80.3°F26.8°C 60.5°F15.8°C 51% 3.0 mph SW4.8 kmh SW 6.0 mph9.7 kmh 29.94 in1013.9 mb 0.00 in0.0 mm 0.00 in0.0 mm 0.00 in0.0 mm
10:10 AM 80.7°F27.1°C 63.0°F17.2°C 55% 3.0 mph SW4.8 kmh SW 6.0 mph9.7 kmh 29.94 in1013.9 mb 0.00 in0.0 mm 0.00 in0.0 mm 0.00 in0.0 mm
10:00 AM 80.0°F26.7°C 62.4°F16.9°C 55% 3.0 mph SW4.8 kmh SW 7.0 mph11.3 kmh 29.94 in1013.9 mb 0.00 in0.0 mm 0.00 in0.0 mm 0.00 in0.0 mm
09:50 AM 79.2°F26.2°C 63.6°F17.6°C 59% 2.0 mph SW3.2 kmh SW 5.0 mph8.0 kmh 29.94 in1013.9 mb 0.00 in0.0 mm 0.00 in0.0 mm 0.00 in0.0 mm
09:40 AM 77.9°F25.5°C 64.7°F18.2°C 64% 1.0 mph SW1.6 kmh SW 3.0 mph4.8 kmh 29.95 in1014.2 mb 0.00 in0.0 mm 0.00 in0.0 mm 0.00 in0.0 mm
09:30 AM 76.3°F24.6°C 64.1°F17.8°C 66% 1.0 mph SW1.6 kmh SW 3.0 mph4.8 kmh 29.95 in1014.2 mb 0.00 in0.0 mm 0.00 in0.0 mm 0.00 in0.0 mm
09:20 AM 74.1°F23.4°C 64.9°F18.3°C 73% 2.0 mph SW3.2 kmh SW 4.0 mph6.4 kmh 29.95 in1014.2 mb 0.00 in0.0 mm 0.00 in0.0 mm 0.00 in0.0 mm
09:10 AM 72.3°F22.4°C 63.9°F17.7°C 75% 1.0 mph SW1.6 kmh SW 4.0 mph6.4 kmh 29.95 in1014.2 mb 0.00 in0.0 mm 0.00 in0.0 mm 0.00 in0.0 mm
09:00 AM 71.1°F21.7°C 63.1°F17.3°C 76% 1.0 mph SW1.6 kmh SW 4.0 mph6.4 kmh 29.95 in1014.2 mb 0.00 in0.0 mm 0.00 in0.0 mm 0.00 in0.0 mm
08:50 AM 70.6°F21.4°C 61.9°F16.6°C 74% 1.0 mph SW1.6 kmh SW 3.0 mph4.8 kmh 29.95 in1014.2 mb 0.00 in0.0 mm 0.00 in0.0 mm 0.00 in0.0 mm
08:40 AM 68.7°F20.4°C 61.9°F16.6°C 79% 1.0 mph SW1.6 kmh SW 3.0 mph4.8 kmh 29.95 in1014.2 mb 0.00 in0.0 mm 0.00 in0.0 mm 0.00 in0.0 mm
08:30 AM 66.2°F19.0°C 59.5°F15.3°C 79% 1.0 mph SW1.6 kmh SW 5.0 mph8.0 kmh 29.96 in1014.6 mb 0.00 in0.0 mm 0.00 in0.0 mm 0.00 in0.0 mm
08:20 AM 64.5°F18.1°C 58.9°F14.9°C 82% 1.0 mph SW1.6 kmh SW 2.0 mph3.2 kmh 29.95 in1014.2 mb 0.00 in0.0 mm 0.00 in0.0 mm 0.00 in0.0 mm
08:10 AM 64.0°F17.8°C 58.0°F14.4°C 81% 1.0 mph SSE1.6 kmh SSE 3.0 mph4.8 kmh 29.95 in1014.2 mb 0.00 in0.0 mm 0.00 in0.0 mm 0.00 in0.0 mm
08:00 AM 63.7°F17.6°C 57.8°F14.3°C 81% 1.0 mph SE1.6 kmh SE 3.0 mph4.8 kmh 29.95 in1014.2 mb 0.00 in0.0 mm 0.00 in0.0 mm 0.00 in0.0 mm
07:50 AM 62.9°F17.2°C 57.7°F14.3°C 83% Calm Calm 3.0 mph4.8 kmh 29.95 in1014.2 mb 0.00 in0.0 mm 0.00 in0.0 mm 0.00 in0.0 mm
07:40 AM 60.9°F16.1°C 56.7°F13.7°C 86% Calm Calm 2.0 mph3.2 kmh 29.95 in1014.2 mb 0.00 in0.0 mm 0.00 in0.0 mm 0.00 in0.0 mm